createdAt,value
2022-09-06T00:01:08.930Z,7.62
2022-09-06T00:03:35.900Z,7.63
2022-09-06T00:06:18.197Z,7.57
2022-09-06T00:08:46.208Z,7.53
2022-09-06T00:11:14.487Z,7.46
2022-09-06T00:13:41.508Z,7.42
2022-09-06T00:16:14.518Z,7.35
2022-09-06T00:18:42.118Z,7.32
2022-09-06T00:21:23.531Z,7.33
2022-09-06T00:23:51.087Z,7.35
2022-09-06T00:26:18.098Z,7.37
2022-09-06T00:28:45.220Z,7.35
2022-09-06T00:31:14.753Z,7.33
2022-09-06T00:33:41.965Z,7.31
2022-09-06T00:36:10.069Z,7.29
2022-09-06T00:38:37.843Z,7.23
2022-09-06T00:41:06.557Z,7.18
2022-09-06T00:43:33.498Z,7.13
2022-09-06T00:46:00.695Z,7.10
2022-09-06T00:48:28.166Z,7.09
2022-09-06T00:51:00.648Z,7.08
2022-09-06T00:53:27.883Z,7.10
2022-09-06T00:55:55.167Z,7.08
2022-09-06T00:58:22.282Z,7.06
2022-09-06T01:00:49.206Z,7.06
2022-09-06T01:03:16.318Z,7.05
2022-09-06T01:06:09.455Z,7.04
2022-09-06T01:08:58.607Z,7.08
2022-09-06T01:11:40.108Z,7.11
2022-09-06T01:14:25.567Z,7.17
2022-09-06T01:17:08.155Z,7.18
2022-09-06T01:19:54.250Z,7.18
2022-09-06T01:22:45.999Z,7.23
2022-09-06T01:25:28.174Z,7.29
2022-09-06T01:28:22.758Z,7.34
2022-09-06T01:31:00.916Z,7.42
2022-09-06T01:33:51.028Z,7.48
2022-09-06T01:36:21.334Z,7.54
2022-09-06T01:38:49.028Z,7.57
2022-09-06T01:41:15.958Z,7.60
2022-09-06T01:43:46.369Z,7.64
2022-09-06T01:46:20.611Z,7.70
2022-09-06T01:49:17.009Z,7.76
2022-09-06T01:52:02.739Z,7.83
2022-09-06T01:54:48.507Z,7.87
2022-09-06T01:57:34.158Z,7.90
2022-09-06T02:00:09.285Z,7.64
2022-09-06T02:03:16.772Z,7.51
2022-09-06T02:05:47.820Z,7.65
2022-09-06T02:08:22.844Z,7.74
2022-09-06T02:11:02.277Z,7.14
2022-09-06T02:13:33.873Z,7.22
2022-09-06T02:16:06.577Z,7.46
2022-09-06T02:18:43.269Z,7.68
2022-09-06T02:21:13.514Z,7.81
2022-09-06T02:23:43.147Z,7.91
2022-09-06T02:26:14.533Z,8.02
2022-09-06T02:28:41.633Z,8.11
2022-09-06T02:31:25.946Z,8.12
2022-09-06T02:33:53.352Z,8.14
2022-09-06T02:36:21.206Z,8.23
2022-09-06T02:38:48.487Z,8.32
2022-09-06T02:41:18.696Z,8.39
2022-09-06T02:43:45.799Z,8.42
2022-09-06T02:46:12.776Z,8.46
2022-09-06T02:48:39.787Z,8.52
2022-09-06T02:51:08.570Z,8.57
2022-09-06T02:53:36.111Z,8.65
2022-09-06T02:56:03.347Z,8.74
2022-09-06T02:58:30.582Z,8.76
2022-09-06T03:00:57.774Z,8.78
2022-09-06T03:03:25.096Z,8.87
2022-09-06T03:05:53.510Z,8.92
2022-09-06T03:08:22.537Z,8.97
2022-09-06T03:10:54.258Z,9.00
2022-09-06T03:13:21.801Z,9.01
2022-09-06T03:15:57.028Z,9.02
2022-09-06T03:18:25.767Z,9.09
2022-09-06T03:20:53.789Z,9.15
2022-09-06T03:23:23.717Z,9.21
2022-09-06T03:25:50.829Z,9.25
2022-09-06T03:28:18.661Z,9.25
2022-09-06T03:30:47.326Z,9.24
2022-09-06T03:33:14.631Z,9.27
2022-09-06T03:35:51.507Z,9.29
2022-09-06T03:38:18.544Z,9.29
2022-09-06T03:40:47.002Z,9.27
2022-09-06T03:43:14.537Z,9.18
2022-09-06T03:45:46.053Z,9.14
2022-09-06T03:48:13.072Z,9.16
2022-09-06T03:50:44.615Z,9.17
2022-09-06T03:53:11.806Z,9.19
2022-09-06T03:55:38.971Z,9.20
2022-09-06T03:58:06.015Z,9.22
2022-09-06T04:00:33.698Z,9.23
2022-09-06T04:03:01.859Z,9.28
2022-09-06T04:05:29.028Z,9.29
2022-09-06T04:07:55.936Z,9.28
2022-09-06T04:10:22.966Z,9.33
2022-09-06T04:12:49.879Z,9.61
2022-09-06T04:15:16.973Z,9.98
2022-09-06T04:17:45.934Z,10.13
2022-09-06T04:20:13.645Z,9.99
2022-09-06T04:22:40.935Z,9.90
2022-09-06T04:25:08.750Z,9.93
2022-09-06T04:27:35.778Z,9.89
2022-09-06T04:30:02.688Z,9.86
2022-09-06T04:32:29.790Z,9.87
2022-09-06T04:34:56.669Z,9.84
2022-09-06T04:37:23.776Z,9.85
2022-09-06T04:39:50.759Z,9.88
2022-09-06T04:42:17.717Z,9.91
2022-09-06T04:44:44.801Z,9.92
2022-09-06T04:47:14.949Z,9.93
2022-09-06T04:49:42.558Z,9.97
2022-09-06T04:52:10.275Z,10.02
2022-09-06T04:54:38.707Z,10.07
2022-09-06T04:57:05.859Z,10.12
2022-09-06T04:59:33.346Z,10.15
2022-09-06T05:02:00.334Z,10.21
2022-09-06T05:04:27.300Z,10.29
2022-09-06T05:07:05.073Z,10.33
2022-09-06T05:09:33.025Z,10.39
2022-09-06T05:12:00.515Z,10.44
2022-09-06T05:14:28.238Z,10.51
2022-09-06T05:16:55.564Z,10.56
2022-09-06T05:19:22.975Z,10.62
2022-09-06T05:21:51.649Z,10.70
2022-09-06T05:24:19.173Z,10.81
2022-09-06T05:26:46.157Z,10.91
2022-09-06T05:29:13.256Z,10.98
2022-09-06T05:31:40.215Z,11.11
2022-09-06T05:34:07.246Z,11.23
2022-09-06T05:36:34.499Z,11.32
2022-09-06T05:39:01.625Z,11.44
2022-09-06T05:41:28.655Z,11.53
2022-09-06T05:43:55.776Z,11.57
2022-09-06T05:46:22.755Z,11.59
2022-09-06T05:48:58.192Z,11.66
2022-09-06T05:51:25.239Z,11.75
2022-09-06T05:53:52.227Z,11.79
2022-09-06T05:56:19.325Z,11.86
2022-09-06T05:58:46.362Z,11.95
2022-09-06T06:01:17.691Z,12.02
2022-09-06T06:03:59.083Z,12.08
2022-09-06T06:06:28.661Z,12.15
2022-09-06T06:08:56.425Z,12.17
2022-09-06T06:11:24.315Z,12.04
2022-09-06T06:13:51.815Z,12.09
2022-09-06T06:16:20.513Z,12.14
2022-09-06T06:18:51.919Z,12.32
2022-09-06T06:21:23.916Z,12.56
2022-09-06T06:23:56.184Z,12.80
2022-09-06T06:26:23.815Z,12.95
2022-09-06T06:28:51.667Z,13.15
2022-09-06T06:31:19.565Z,13.25
2022-09-06T06:33:46.595Z,13.52
2022-09-06T06:36:13.498Z,13.82
2022-09-06T06:38:44.846Z,14.07
2022-09-06T06:41:14.015Z,14.25
2022-09-06T06:43:41.218Z,14.31
2022-09-06T06:46:15.701Z,14.33
2022-09-06T06:48:44.051Z,14.34
2022-09-06T06:51:13.228Z,14.50
2022-09-06T06:53:40.543Z,14.46
2022-09-06T06:56:16.246Z,14.50
2022-09-06T06:58:43.676Z,14.68
2022-09-06T07:01:11.076Z,14.94
2022-09-06T07:03:38.397Z,15.20
2022-09-06T07:06:13.317Z,15.37
2022-09-06T07:08:41.035Z,15.52
2022-09-06T07:11:10.126Z,15.25
2022-09-06T07:13:37.488Z,15.31
2022-09-06T07:16:12.090Z,15.53
2022-09-06T07:18:42.288Z,15.47
2022-09-06T07:24:09.059Z,15.68
2022-09-06T07:26:38.517Z,15.78
2022-09-06T07:29:06.547Z,15.40
2022-09-06T07:34:22.320Z,15.09
2022-09-06T07:36:53.328Z,15.40
2022-09-06T07:39:20.546Z,15.69
2022-09-06T07:41:47.666Z,15.77
2022-09-06T07:44:15.534Z,15.97
2022-09-06T07:46:42.785Z,15.94
2022-09-06T07:49:09.818Z,15.73
2022-09-06T07:51:36.926Z,15.65
2022-09-06T07:54:29.253Z,15.85
2022-09-06T07:56:51.656Z,15.86
2022-09-06T07:59:18.705Z,16.06
2022-09-06T08:01:47.586Z,16.34
2022-09-06T08:04:14.945Z,16.56
2022-09-06T08:09:35.695Z,16.37
2022-09-06T08:12:07.101Z,16.50
2022-09-06T08:14:34.995Z,16.64
2022-09-06T08:17:04.957Z,16.52
2022-09-06T08:19:32.630Z,15.99
2022-09-06T08:21:59.720Z,16.26
2022-09-06T08:24:26.699Z,16.19
2022-09-06T08:26:53.950Z,16.36
2022-09-06T08:29:21.110Z,16.39
2022-09-06T08:31:48.391Z,16.29
2022-09-06T08:34:16.047Z,16.30
2022-09-06T08:36:44.207Z,16.08
2022-09-06T08:39:11.652Z,16.03
2022-09-06T08:41:47.698Z,16.42
2022-09-06T08:47:12.786Z,16.91
2022-09-06T08:50:07.418Z,17.13
2022-09-06T08:52:45.086Z,17.32
2022-09-06T08:55:57.096Z,17.41
2022-09-06T08:58:30.042Z,17.21
2022-09-06T09:01:02.463Z,17.16
2022-09-06T09:03:36.866Z,17.29
2022-09-06T09:06:07.146Z,17.30
2022-09-06T09:08:44.437Z,17.42
2022-09-06T09:11:15.827Z,17.45
2022-09-06T09:13:59.392Z,17.70
2022-09-06T09:16:26.637Z,17.67
2022-09-06T09:18:56.616Z,17.52
2022-09-06T09:21:30.472Z,17.28
2022-09-06T09:24:02.413Z,16.76
2022-09-06T09:26:36.940Z,17.35
2022-09-06T09:29:05.020Z,17.60
2022-09-06T09:31:43.029Z,17.60
2022-09-06T09:34:15.135Z,17.39
2022-09-06T09:39:35.841Z,17.45
2022-09-06T09:42:03.837Z,17.47
2022-09-06T09:44:30.935Z,17.59
2022-09-06T09:46:57.994Z,17.62
2022-09-06T09:49:25.380Z,17.64
2022-09-06T09:52:11.975Z,17.59
2022-09-06T09:54:41.527Z,17.60
2022-09-06T09:57:15.117Z,17.53
2022-09-06T09:59:51.484Z,17.41
2022-09-06T10:02:19.776Z,17.28
2022-09-06T10:04:54.445Z,17.26
2022-09-06T10:07:23.206Z,17.33
2022-09-06T10:10:01.443Z,17.57
2022-09-06T10:12:38.907Z,17.93
2022-09-06T10:15:07.786Z,17.91
2022-09-06T10:17:38.590Z,17.94
2022-09-06T10:20:09.666Z,17.98
2022-09-06T10:23:14.072Z,18.15
2022-09-06T10:25:51.335Z,17.96
2022-09-06T10:28:36.514Z,18.06
2022-09-06T10:31:25.374Z,18.19
2022-09-06T10:34:01.226Z,18.16
2022-09-06T10:36:37.481Z,17.94
2022-09-06T10:39:26.226Z,17.73
2022-09-06T10:41:55.996Z,17.86
2022-09-06T10:45:03.669Z,17.30
2022-09-06T10:47:47.036Z,16.95
2022-09-06T10:50:14.564Z,16.99
2022-09-06T10:52:44.419Z,16.96
2022-09-06T10:55:16.156Z,17.21
2022-09-06T11:00:46.866Z,17.24
2022-09-06T11:06:21.211Z,17.11
2022-09-06T11:08:58.421Z,16.79
2022-09-06T11:11:59.525Z,17.05
2022-09-06T11:14:28.876Z,17.34
2022-09-06T11:17:34.805Z,17.45
2022-09-06T11:20:08.967Z,17.65
2022-09-06T11:22:41.623Z,17.48
2022-09-06T11:25:32.049Z,17.30
2022-09-06T11:28:00.748Z,17.39
2022-09-06T11:30:29.881Z,17.42
2022-09-06T11:33:25.992Z,17.15
2022-09-06T11:35:54.107Z,17.52
2022-09-06T11:38:25.275Z,17.57
2022-09-06T11:41:02.054Z,17.71
2022-09-06T11:43:49.016Z,17.54
2022-09-06T11:46:48.597Z,17.25
2022-09-06T11:49:15.696Z,17.19
2022-09-06T11:51:44.404Z,17.17
2022-09-06T11:54:23.362Z,17.20
2022-09-06T11:57:08.895Z,16.92
2022-09-06T11:59:39.059Z,16.50
2022-09-06T12:02:08.335Z,16.33
2022-09-06T12:05:01.028Z,16.51
2022-09-06T12:07:29.115Z,16.67
2022-09-06T12:09:56.196Z,17.08
2022-09-06T12:12:43.394Z,16.80
2022-09-06T12:15:40.568Z,16.67
2022-09-06T12:18:07.635Z,16.59
2022-09-06T12:20:51.278Z,16.75
2022-09-06T12:23:36.491Z,16.73
2022-09-06T12:26:05.673Z,16.76
2022-09-06T12:28:53.955Z,16.74
2022-09-06T12:31:33.382Z,17.07
2022-09-06T12:34:20.036Z,17.21
2022-09-06T12:36:51.555Z,17.23
2022-09-06T12:39:21.375Z,16.99
2022-09-06T12:41:50.895Z,17.02
2022-09-06T12:44:28.034Z,17.01
2022-09-06T12:46:55.025Z,17.27
2022-09-06T12:49:23.542Z,17.28
2022-09-06T12:51:50.515Z,17.17
2022-09-06T12:54:24.106Z,17.18
2022-09-06T12:56:51.615Z,17.24
2022-09-06T12:59:25.182Z,17.43
2022-09-06T13:02:21.104Z,17.43
2022-09-06T13:04:53.285Z,17.29
2022-09-06T13:07:22.799Z,16.90
2022-09-06T13:09:52.103Z,16.62
2022-09-06T13:12:35.704Z,16.57
2022-09-06T13:15:25.320Z,16.64
2022-09-06T13:17:53.909Z,16.78
2022-09-06T13:20:32.986Z,17.00
2022-09-06T13:23:11.566Z,16.92
2022-09-06T13:25:53.254Z,16.65
2022-09-06T13:28:29.233Z,16.71
2022-09-06T13:31:18.134Z,16.77
2022-09-06T13:33:46.545Z,16.76
2022-09-06T13:36:14.046Z,16.77
2022-09-06T13:38:43.093Z,16.62
2022-09-06T13:41:30.287Z,16.36
2022-09-06T13:44:26.526Z,16.61
2022-09-06T13:46:55.229Z,16.61
2022-09-06T13:49:25.841Z,16.57
2022-09-06T13:51:54.066Z,16.55
2022-09-06T13:54:22.966Z,16.37
2022-09-06T13:56:50.838Z,16.32
2022-09-06T13:59:18.235Z,16.37
2022-09-06T14:01:47.473Z,16.44
2022-09-06T14:04:16.415Z,16.34
2022-09-06T14:06:44.335Z,16.26
2022-09-06T14:09:11.878Z,16.29
2022-09-06T14:11:39.270Z,16.25
2022-09-06T14:14:07.787Z,16.12
2022-09-06T14:16:35.286Z,16.07
2022-09-06T14:19:03.427Z,16.11
2022-09-06T14:21:30.916Z,16.15
2022-09-06T14:24:03.349Z,16.07
2022-09-06T14:26:32.740Z,16.13
2022-09-06T14:29:00.097Z,16.06
2022-09-06T14:31:28.512Z,16.02
2022-09-06T14:33:56.986Z,15.98
2022-09-06T14:36:26.758Z,15.90
2022-09-06T14:38:54.014Z,15.93
2022-09-06T14:41:21.285Z,15.98
2022-09-06T14:43:51.218Z,15.83
2022-09-06T14:46:19.296Z,15.76
2022-09-06T14:48:46.835Z,15.69
2022-09-06T14:51:23.285Z,15.76
2022-09-06T14:53:52.879Z,15.72
2022-09-06T14:56:20.399Z,15.59
2022-09-06T14:58:47.889Z,15.56
2022-09-06T15:01:21.104Z,15.45
2022-09-06T15:03:51.880Z,15.45
2022-09-06T15:06:23.219Z,15.34
2022-09-06T15:08:50.603Z,15.20
2022-09-06T15:11:37.354Z,15.33
2022-09-06T15:14:07.828Z,15.42
2022-09-06T15:16:36.043Z,15.41
2022-09-06T15:19:03.737Z,15.41
2022-09-06T15:21:31.701Z,15.29
2022-09-06T15:24:00.003Z,15.29
2022-09-06T15:26:26.947Z,15.16
2022-09-06T15:28:54.581Z,15.15
2022-09-06T15:31:21.817Z,15.10
2022-09-06T15:33:51.109Z,15.05
2022-09-06T15:36:18.810Z,14.90
2022-09-06T15:38:48.215Z,14.76
2022-09-06T15:41:19.384Z,14.70
2022-09-06T15:43:48.696Z,14.65
2022-09-06T15:46:17.999Z,14.65
2022-09-06T15:48:47.233Z,14.70
2022-09-06T15:51:16.782Z,14.76
2022-09-06T15:53:44.379Z,14.63
2022-09-06T15:56:14.610Z,14.48
2022-09-06T15:58:41.951Z,14.46
2022-09-06T16:01:14.792Z,14.33
2022-09-06T16:03:43.944Z,14.27
2022-09-06T16:06:31.670Z,14.19
2022-09-06T16:09:01.428Z,14.10
2022-09-06T16:11:29.493Z,14.06
2022-09-06T16:13:56.702Z,14.11
2022-09-06T16:16:24.695Z,14.06
2022-09-06T16:18:54.803Z,14.08
2022-09-06T16:21:24.840Z,13.90
2022-09-06T16:23:54.338Z,13.80
2022-09-06T16:26:23.537Z,13.85
2022-09-06T16:28:51.853Z,13.72
2022-09-06T16:31:19.737Z,13.67
2022-09-06T16:33:48.822Z,13.71
2022-09-06T16:36:16.940Z,13.71
2022-09-06T16:38:44.123Z,13.67
2022-09-06T16:41:36.020Z,13.56
2022-09-06T16:44:03.539Z,13.57
2022-09-06T16:46:31.216Z,13.57
2022-09-06T16:49:01.371Z,13.50
2022-09-06T16:51:31.380Z,13.46
2022-09-06T16:53:59.557Z,13.42
2022-09-06T16:56:28.841Z,13.33
2022-09-06T16:58:58.796Z,13.29
2022-09-06T17:01:27.695Z,13.27
2022-09-06T17:03:55.109Z,13.27
2022-09-06T17:06:23.104Z,13.28
2022-09-06T17:08:51.030Z,13.16
2022-09-06T17:11:20.565Z,13.15
2022-09-06T17:13:49.300Z,13.06
2022-09-06T17:16:34.631Z,13.02
2022-09-06T17:19:02.003Z,12.94
2022-09-06T17:21:29.728Z,12.84
2022-09-06T17:23:58.704Z,12.81
2022-09-06T17:26:25.785Z,12.71
2022-09-06T17:28:52.710Z,12.70
2022-09-06T17:31:24.982Z,12.70
2022-09-06T17:33:52.777Z,12.67
2022-09-06T17:36:23.610Z,12.62
2022-09-06T17:38:53.742Z,12.60
2022-09-06T17:41:24.336Z,12.54
2022-09-06T17:43:54.127Z,12.51
2022-09-06T17:46:26.402Z,12.45
2022-09-06T17:48:56.143Z,12.37
2022-09-06T17:51:24.373Z,12.28
2022-09-06T17:53:52.255Z,12.21
2022-09-06T17:56:20.370Z,12.18
2022-09-06T17:58:57.674Z,12.10
2022-09-06T18:01:26.219Z,12.08
2022-09-06T18:03:53.284Z,12.06
2022-09-06T18:06:22.941Z,11.99
2022-09-06T18:08:52.124Z,11.90
2022-09-06T18:11:24.886Z,11.72
2022-09-06T18:14:24.895Z,11.53
2022-09-06T18:16:52.255Z,11.45
2022-09-06T18:19:19.620Z,11.35
2022-09-06T18:21:47.464Z,11.21
2022-09-06T18:24:14.557Z,11.13
2022-09-06T18:26:42.245Z,11.12
2022-09-06T18:29:13.241Z,11.07
2022-09-06T18:31:41.503Z,11.01
2022-09-06T18:34:09.308Z,10.98
2022-09-06T18:36:37.904Z,10.92
2022-09-06T18:39:05.763Z,10.86
2022-09-06T18:41:52.255Z,10.81
2022-09-06T18:44:19.568Z,10.72
2022-09-06T18:46:46.771Z,10.66
2022-09-06T18:49:15.251Z,10.54
2022-09-06T18:51:42.775Z,10.50
2022-09-06T18:54:11.309Z,10.47
2022-09-06T18:56:38.785Z,10.42
2022-09-06T18:59:06.141Z,10.36
2022-09-06T19:01:35.161Z,10.33
2022-09-06T19:04:03.114Z,10.30
2022-09-06T19:06:31.795Z,10.26
2022-09-06T19:09:00.621Z,10.22
2022-09-06T19:11:28.338Z,10.15
2022-09-06T19:13:56.414Z,10.10
2022-09-06T19:16:24.525Z,10.06
2022-09-06T19:18:55.165Z,9.99
2022-09-06T19:21:24.895Z,9.92
2022-09-06T19:24:00.468Z,9.88
2022-09-06T19:26:31.345Z,9.83
2022-09-06T19:29:00.157Z,9.78
2022-09-06T19:31:30.180Z,9.71
2022-09-06T19:33:57.699Z,9.67
2022-09-06T19:36:26.487Z,9.59
2022-09-06T19:39:03.951Z,9.52
2022-09-06T19:41:33.780Z,9.52
2022-09-06T19:44:01.855Z,9.49
2022-09-06T19:46:29.270Z,9.41
2022-09-06T19:48:56.849Z,9.39
2022-09-06T19:51:24.442Z,9.37
2022-09-06T19:53:54.294Z,9.31
2022-09-06T19:56:32.101Z,9.29
2022-09-06T19:59:01.590Z,9.25
2022-09-06T20:01:31.692Z,9.18
2022-09-06T20:04:00.373Z,9.14
2022-09-06T20:06:27.764Z,9.10
2022-09-06T20:08:56.582Z,9.06
2022-09-06T20:11:27.176Z,9.04
2022-09-06T20:13:54.283Z,9.02
2022-09-06T20:16:21.801Z,8.99
2022-09-06T20:18:49.499Z,8.94
2022-09-06T20:21:18.667Z,8.93
2022-09-06T20:23:50.544Z,8.86
2022-09-06T20:26:18.248Z,8.83
2022-09-06T20:28:45.668Z,8.78
2022-09-06T20:31:17.420Z,8.72
2022-09-06T20:33:49.526Z,8.70
2022-09-06T20:36:18.204Z,8.65
2022-09-06T20:38:46.565Z,8.60
2022-09-06T20:41:15.780Z,8.55
2022-09-06T20:43:42.937Z,8.54
2022-09-06T20:46:14.779Z,8.49
2022-09-06T20:48:44.660Z,8.49
2022-09-06T20:51:18.829Z,8.43
2022-09-06T20:53:48.194Z,8.36
2022-09-06T20:56:17.386Z,8.33
2022-09-06T20:59:05.178Z,8.30
2022-09-06T21:01:35.250Z,8.31
2022-09-06T21:04:04.250Z,8.25
2022-09-06T21:06:34.486Z,8.22
2022-09-06T21:09:03.110Z,8.20
2022-09-06T21:11:30.236Z,8.17
2022-09-06T21:13:57.766Z,8.10
2022-09-06T21:16:27.714Z,8.07
2022-09-06T21:18:57.534Z,8.07
2022-09-06T21:21:25.603Z,8.04
2022-09-06T21:23:53.981Z,8.02
2022-09-06T21:26:22.409Z,7.98
2022-09-06T21:28:49.876Z,7.97
2022-09-06T21:31:22.871Z,7.93
2022-09-06T21:33:52.702Z,7.92
2022-09-06T21:36:21.819Z,7.86
2022-09-06T21:38:55.549Z,7.81
2022-09-06T21:41:23.257Z,7.81
2022-09-06T21:43:54.324Z,7.77
2022-09-06T21:46:23.082Z,7.75
2022-09-06T21:48:52.089Z,7.75
2022-09-06T21:51:21.461Z,7.74
2022-09-06T21:53:50.030Z,7.69
2022-09-06T21:56:19.738Z,7.61
2022-09-06T21:58:51.095Z,7.56
2022-09-06T22:01:19.008Z,7.54
2022-09-06T22:03:46.437Z,7.53
2022-09-06T22:06:24.951Z,7.52
2022-09-06T22:08:52.795Z,7.55
2022-09-06T22:11:24.690Z,7.55
2022-09-06T22:13:51.811Z,7.58
2022-09-06T22:16:21.982Z,7.55
2022-09-06T22:18:49.917Z,7.49
2022-09-06T22:21:20.131Z,7.52
2022-09-06T22:23:55.785Z,7.49
2022-09-06T22:26:23.895Z,7.52
2022-09-06T22:28:58.731Z,7.49
2022-09-06T22:31:27.837Z,7.46
2022-09-06T22:33:55.431Z,7.44
2022-09-06T22:36:24.120Z,7.39
2022-09-06T22:38:56.377Z,7.38
2022-09-06T22:41:28.828Z,7.36
2022-09-06T22:43:56.498Z,7.37
2022-09-06T22:46:24.010Z,7.36
2022-09-06T22:48:51.052Z,7.31
2022-09-06T22:51:18.057Z,7.28
2022-09-06T22:53:45.093Z,7.29
2022-09-06T22:56:12.114Z,7.25
2022-09-06T22:58:39.295Z,7.23
2022-09-06T23:01:08.924Z,7.19
2022-09-06T23:03:36.201Z,7.17
2022-09-06T23:06:03.973Z,7.15
2022-09-06T23:08:31.694Z,7.15
2022-09-06T23:11:04.711Z,7.14
2022-09-06T23:13:31.756Z,7.15
2022-09-06T23:16:05.954Z,7.09
2022-09-06T23:18:33.216Z,7.05
2022-09-06T23:21:05.226Z,6.98
2022-09-06T23:23:32.267Z,6.98
2022-09-06T23:26:04.299Z,6.95
2022-09-06T23:28:31.499Z,6.97
2022-09-06T23:31:01.998Z,6.95
2022-09-06T23:33:29.335Z,6.89
2022-09-06T23:35:56.650Z,6.88
2022-09-06T23:38:23.600Z,6.87
2022-09-06T23:40:50.587Z,6.86
2022-09-06T23:43:17.512Z,6.84
2022-09-06T23:45:44.517Z,6.81
2022-09-06T23:48:11.454Z,6.74
2022-09-06T23:50:38.705Z,6.65
2022-09-06T23:53:05.700Z,6.57
2022-09-06T23:55:32.608Z,6.55
2022-09-06T23:57:59.605Z,6.54
